Portada
METAR-TAF:

METAR-TAF

Aeropuertos :

Topeka, Kansas, Estados Unidos

latitud: 38-56-29N, longitud: 095-39-02W, altitud: 329 m

Observación

El informe se hizo hace 20 minutos, a las 07:53 UTC
Viento 6 kt del sureste
Temperatura 24°C
Humedad 89%
Presión 1014 hPa
Visibilidad: 16.1 km
Cielo despejado

METAR: KFOE 060753Z AUTO 14006KT 10SM CLR 24/22 A2995 RMK AO2 SLP127 T02390222

Hora: 03:13 (08:13 UTC)

Pronóstico

El informe se hizo hace 2 horas y 53 minutos, a las 05:20 UTC
Pronóstico válido del 06 a las 06 UTC al 07 a las 06 UTC
Viento 8 kt del sur-sureste
Visibilidad: 10 km
Escasas nubes a una altura de 25000 ft

TAF: KFOE 060520Z 0606/0706 15008KT P6SM FEW250

Observaciones y pronósticos meteorológicos de más de 4000 aeropuertos (mensajes METAR y TAF).

Los puntos amarillos y rojos representan las estaciones disponibles.

Ponga el ratón en el punto deseado para ver el nombre de la estación.

Haga clic para ver las observaciones y los pronósticos meteorológicos.

Para cambiar el mapa : haga clic en los botones verdes con una cruz de color negro para hacer un zoom, en el botón verde con un guión para alejar o en las flechas verdes para mapas adyacentes.


METAR-TAF: